sensor_id;sensor_type;location;lat;lon;timestamp;pressure;altitude;pressure_sealevel;temperature;humidity
163;BME280;3946;48.958;8.284;2023-04-22T00:00:42;99795.25;;;10.34;100.00
163;BME280;3946;48.958;8.284;2023-04-22T00:03:29;99788.63;;;10.30;100.00
163;BME280;3946;48.958;8.284;2023-04-22T00:06:15;99790.72;;;10.25;100.00
163;BME280;3946;48.958;8.284;2023-04-22T00:09:01;99783.34;;;10.31;100.00
163;BME280;3946;48.958;8.284;2023-04-22T00:11:46;99786.13;;;10.28;100.00
163;BME280;3946;48.958;8.284;2023-04-22T00:14:32;99784.31;;;10.41;100.00
163;BME280;3946;48.958;8.284;2023-04-22T00:17:17;99784.88;;;10.34;100.00
163;BME280;3946;48.958;8.284;2023-04-22T00:20:05;99792.97;;;10.29;100.00
163;BME280;3946;48.958;8.284;2023-04-22T00:22:50;99779.78;;;10.21;100.00
163;BME280;3946;48.958;8.284;2023-04-22T00:25:36;99787.53;;;10.21;100.00
163;BME280;3946;48.958;8.284;2023-04-22T00:28:21;99787.81;;;10.16;100.00
163;BME280;3946;48.958;8.284;2023-04-22T00:31:06;99785.56;;;10.12;100.00
163;BME280;3946;48.958;8.284;2023-04-22T00:33:52;99781.75;;;10.05;100.00
163;BME280;3946;48.958;8.284;2023-04-22T00:36:38;99780.81;;;10.06;100.00
163;BME280;3946;48.958;8.284;2023-04-22T00:39:24;99784.31;;;10.17;100.00
163;BME280;3946;48.958;8.284;2023-04-22T00:42:10;99780.69;;;10.07;100.00
163;BME280;3946;48.958;8.284;2023-04-22T00:44:55;99786.22;;;10.03;100.00
163;BME280;3946;48.958;8.284;2023-04-22T00:47:40;99791.09;;;9.95;100.00
163;BME280;3946;48.958;8.284;2023-04-22T00:50:26;99802.47;;;10.05;100.00
163;BME280;3946;48.958;8.284;2023-04-22T00:53:13;99801.75;;;10.03;100.00
163;BME280;3946;48.958;8.284;2023-04-22T00:55:59;99806.47;;;10.09;100.00
163;BME280;3946;48.958;8.284;2023-04-22T00:58:44;99799.41;;;9.87;100.00
163;BME280;3946;48.958;8.284;2023-04-22T01:01:30;99792.47;;;9.88;100.00
163;BME280;3946;48.958;8.284;2023-04-22T01:04:15;99791.63;;;9.87;100.00
163;BME280;3946;48.958;8.284;2023-04-22T01:07:01;99799.41;;;9.87;100.00
163;BME280;3946;48.958;8.284;2023-04-22T01:09:48;99803.84;;;9.85;100.00
163;BME280;3946;48.958;8.284;2023-04-22T01:12:33;99807.53;;;10.06;100.00
163;BME280;3946;48.958;8.284;2023-04-22T01:15:19;99803.94;;;9.83;100.00
163;BME280;3946;48.958;8.284;2023-04-22T01:18:05;99793.91;;;9.79;100.00
163;BME280;3946;48.958;8.284;2023-04-22T01:20:51;99791.16;;;9.69;100.00
163;BME280;3946;48.958;8.284;2023-04-22T01:23:37;99798.50;;;9.63;100.00
163;BME280;3946;48.958;8.284;2023-04-22T01:26:23;99810.09;;;9.70;100.00
163;BME280;3946;48.958;8.284;2023-04-22T01:29:09;99814.84;;;9.63;100.00
163;BME280;3946;48.958;8.284;2023-04-22T01:31:55;99809.78;;;9.49;100.00
163;BME280;3946;48.958;8.284;2023-04-22T01:34:41;99818.66;;;9.45;100.00
163;BME280;3946;48.958;8.284;2023-04-22T01:37:27;99817.13;;;9.42;100.00
163;BME280;3946;48.958;8.284;2023-04-22T01:40:15;99824.03;;;9.42;100.00
163;BME280;3946;48.958;8.284;2023-04-22T01:43:03;99819.19;;;9.37;100.00
163;BME280;3946;48.958;8.284;2023-04-22T01:45:50;99812.38;;;9.24;100.00
163;BME280;3946;48.958;8.284;2023-04-22T01:48:36;99823.03;;;9.32;100.00
163;BME280;3946;48.958;8.284;2023-04-22T01:51:22;99804.59;;;9.11;100.00
163;BME280;3946;48.958;8.284;2023-04-22T01:54:08;99822.56;;;9.12;100.00
163;BME280;3946;48.958;8.284;2023-04-22T01:56:54;99829.72;;;9.09;100.00
163;BME280;3946;48.958;8.284;2023-04-22T01:59:41;99825.25;;;8.98;100.00
163;BME280;3946;48.958;8.284;2023-04-22T02:02:26;99822.28;;;9.04;100.00
163;BME280;3946;48.958;8.284;2023-04-22T02:05:12;99810.19;;;9.05;100.00
163;BME280;3946;48.958;8.284;2023-04-22T02:07:57;99822.38;;;9.03;100.00
163;BME280;3946;48.958;8.284;2023-04-22T02:10:42;99823.22;;;9.16;100.00
163;BME280;3946;48.958;8.284;2023-04-22T02:13:34;99822.28;;;9.04;100.00
163;BME280;3946;48.958;8.284;2023-04-22T02:16:20;99822.66;;;8.98;100.00
163;BME280;3946;48.958;8.284;2023-04-22T02:19:06;99823.09;;;8.92;100.00
163;BME280;3946;48.958;8.284;2023-04-22T02:21:51;99826.78;;;8.88;100.00
163;BME280;3946;48.958;8.284;2023-04-22T02:24:37;99829.56;;;8.85;100.00
163;BME280;3946;48.958;8.284;2023-04-22T02:27:22;99834.06;;;8.69;100.00
163;BME280;3946;48.958;8.284;2023-04-22T02:30:09;99841.44;;;8.75;100.00
163;BME280;3946;48.958;8.284;2023-04-22T02:32:55;99839.31;;;8.67;100.00
163;BME280;3946;48.958;8.284;2023-04-22T02:35:40;99830.75;;;8.67;100.00
163;BME280;3946;48.958;8.284;2023-04-22T02:38:25;99836.75;;;8.67;100.00
163;BME280;3946;48.958;8.284;2023-04-22T02:41:11;99844.78;;;8.63;100.00
163;BME280;3946;48.958;8.284;2023-04-22T02:43:56;99850.25;;;8.58;100.00
163;BME280;3946;48.958;8.284;2023-04-22T02:46:44;99848.16;;;8.51;100.00
163;BME280;3946;48.958;8.284;2023-04-22T02:49:30;99848.34;;;8.48;100.00
163;BME280;3946;48.958;8.284;2023-04-22T02:52:15;99835.59;;;8.45;100.00
163;BME280;3946;48.958;8.284;2023-04-22T02:55:00;99852.25;;;8.40;100.00
163;BME280;3946;48.958;8.284;2023-04-22T02:57:46;99849.28;;;8.32;100.00
163;BME280;3946;48.958;8.284;2023-04-22T03:00:31;99850.94;;;8.33;100.00
163;BME280;3946;48.958;8.284;2023-04-22T03:03:18;99850.69;;;8.65;100.00
163;BME280;3946;48.958;8.284;2023-04-22T03:06:03;99834.09;;;8.28;100.00
163;BME280;3946;48.958;8.284;2023-04-22T03:08:49;99847.78;;;8.28;100.00
163;BME280;3946;48.958;8.284;2023-04-22T03:11:34;99843.78;;;8.10;100.00
163;BME280;3946;48.958;8.284;2023-04-22T03:14:20;99842.84;;;8.39;100.00
163;BME280;3946;48.958;8.284;2023-04-22T03:17:06;99856.38;;;8.15;100.00
163;BME280;3946;48.958;8.284;2023-04-22T03:19:53;99852.25;;;8.40;100.00
163;BME280;3946;48.958;8.284;2023-04-22T03:22:39;99857.03;;;8.18;100.00
163;BME280;3946;48.958;8.284;2023-04-22T03:25:25;99856.31;;;8.02;100.00
163;BME280;3946;48.958;8.284;2023-04-22T03:28:13;99854.56;;;8.02;100.00
163;BME280;3946;48.958;8.284;2023-04-22T03:30:58;99852.72;;;8.04;100.00
163;BME280;3946;48.958;8.284;2023-04-22T03:33:44;99858.81;;;8.03;100.00
163;BME280;3946;48.958;8.284;2023-04-22T03:36:38;99866.28;;;7.80;100.00
163;BME280;3946;48.958;8.284;2023-04-22T03:39:24;99853.84;;;7.72;100.00
163;BME280;3946;48.958;8.284;2023-04-22T03:42:10;99848.03;;;7.68;100.00
163;BME280;3946;48.958;8.284;2023-04-22T03:44:59;99846.78;;;7.61;100.00
163;BME280;3946;48.958;8.284;2023-04-22T03:47:48;99843.97;;;7.64;100.00
163;BME280;3946;48.958;8.284;2023-04-22T03:50:39;99842.31;;;7.63;100.00
163;BME280;3946;48.958;8.284;2023-04-22T03:53:27;99844.84;;;7.79;100.00
163;BME280;3946;48.958;8.284;2023-04-22T03:56:12;99842.22;;;7.65;100.00
163;BME280;3946;48.958;8.284;2023-04-22T03:59:01;99840.56;;;7.64;100.00
163;BME280;3946;48.958;8.284;2023-04-22T04:01:50;99832.38;;;7.71;100.00
163;BME280;3946;48.958;8.284;2023-04-22T04:04:38;99831.47;;;7.58;100.00
163;BME280;3946;48.958;8.284;2023-04-22T04:07:24;99837.63;;;7.56;100.00
163;BME280;3946;48.958;8.284;2023-04-22T04:10:11;99837.16;;;7.49;100.00
163;BME280;3946;48.958;8.284;2023-04-22T04:12:56;99844.44;;;7.85;100.00
163;BME280;3946;48.958;8.284;2023-04-22T04:18:37;99847.59;;;7.76;100.00
163;BME280;3946;48.958;8.284;2023-04-22T04:21:22;99843.28;;;7.62;100.00
163;BME280;3946;48.958;8.284;2023-04-22T04:24:09;99849.88;;;7.66;100.00
163;BME280;3946;48.958;8.284;2023-04-22T04:27:02;99835.06;;;7.56;100.00
163;BME280;3946;48.958;8.284;2023-04-22T04:29:55;99833.56;;;7.52;100.00
163;BME280;3946;48.958;8.284;2023-04-22T04:32:55;99831.66;;;7.55;100.00
163;BME280;3946;48.958;8.284;2023-04-22T04:35:42;99830.25;;;7.50;100.00
163;BME280;3946;48.958;8.284;2023-04-22T04:38:31;99838.81;;;7.50;100.00
163;BME280;3946;48.958;8.284;2023-04-22T04:41:17;99837.16;;;7.49;100.00
163;BME280;3946;48.958;8.284;2023-04-22T04:44:06;99835.41;;;7.50;100.00
163;BME280;3946;48.958;8.284;2023-04-22T04:46:55;99838.19;;;7.47;100.00
163;BME280;3946;48.958;8.284;2023-04-22T04:49:41;99833.66;;;7.50;100.00
163;BME280;3946;48.958;8.284;2023-04-22T04:52:27;99841.22;;;7.53;100.00
163;BME280;3946;48.958;8.284;2023-04-22T04:55:12;99846.44;;;7.37;100.00
163;BME280;3946;48.958;8.284;2023-04-22T04:57:59;99850.78;;;7.37;100.00
163;BME280;3946;48.958;8.284;2023-04-22T05:00:46;99850.59;;;7.26;100.00
163;BME280;3946;48.958;8.284;2023-04-22T05:03:33;99849.38;;;7.31;100.00
163;BME280;3946;48.958;8.284;2023-04-22T05:06:19;99843.59;;;7.28;100.00
163;BME280;3946;48.958;8.284;2023-04-22T05:09:09;99854.53;;;7.31;100.00
163;BME280;3946;48.958;8.284;2023-04-22T05:11:54;99848.78;;;7.42;100.00
163;BME280;3946;48.958;8.284;2023-04-22T05:14:42;99854.66;;;7.30;100.00
163;BME280;3946;48.958;8.284;2023-04-22T05:17:31;99848.69;;;7.44;100.00
163;BME280;3946;48.958;8.284;2023-04-22T05:20:18;99859.09;;;7.56;100.00
163;BME280;3946;48.958;8.284;2023-04-22T05:23:04;99861.19;;;7.50;100.00
163;BME280;3946;48.958;8.284;2023-04-22T05:25:49;99863.50;;;7.54;100.00
163;BME280;3946;48.958;8.284;2023-04-22T05:28:35;99860.81;;;8.13;100.00
163;BME280;3946;48.958;8.284;2023-04-22T05:31:21;99865.69;;;9.12;100.00
163;BME280;3946;48.958;8.284;2023-04-22T05:34:09;99873.41;;;9.64;100.00
163;BME280;3946;48.958;8.284;2023-04-22T05:36:55;99851.38;;;10.33;100.00
163;BME280;3946;48.958;8.284;2023-04-22T05:39:41;99845.63;;;11.12;100.00
163;BME280;3946;48.958;8.284;2023-04-22T05:42:27;99821.69;;;11.09;100.00
163;BME280;3946;48.958;8.284;2023-04-22T05:45:13;99824.88;;;11.23;100.00
163;BME280;3946;48.958;8.284;2023-04-22T05:47:58;99828.53;;;12.01;100.00
163;BME280;3946;48.958;8.284;2023-04-22T05:50:49;99822.66;;;12.74;100.00
163;BME280;3946;48.958;8.284;2023-04-22T05:53:35;99811.75;;;14.03;92.59
163;BME280;3946;48.958;8.284;2023-04-22T05:56:20;99813.84;;;14.09;90.90
163;BME280;3946;48.958;8.284;2023-04-22T05:59:06;99818.53;;;13.45;91.19
163;BME280;3946;48.958;8.284;2023-04-22T06:01:51;99829.75;;;12.72;95.63
163;BME280;3946;48.958;8.284;2023-04-22T06:04:37;99826.13;;;12.63;97.74
163;BME280;3946;48.958;8.284;2023-04-22T06:07:25;99832.63;;;12.03;98.28
163;BME280;3946;48.958;8.284;2023-04-22T06:10:10;99830.28;;;11.89;100.00
163;BME280;3946;48.958;8.284;2023-04-22T06:12:56;99832.75;;;12.13;100.00
163;BME280;3946;48.958;8.284;2023-04-22T06:15:41;99831.03;;;12.34;100.00
163;BME280;3946;48.958;8.284;2023-04-22T06:18:27;99833.88;;;12.42;100.00
163;BME280;3946;48.958;8.284;2023-04-22T06:21:12;99828.75;;;12.52;100.00
163;BME280;3946;48.958;8.284;2023-04-22T06:23:59;99827.53;;;12.24;100.00
163;BME280;3946;48.958;8.284;2023-04-22T06:26:45;99821.34;;;12.36;100.00
163;BME280;3946;48.958;8.284;2023-04-22T06:29:30;99822.72;;;12.51;100.00
163;BME280;3946;48.958;8.284;2023-04-22T06:32:15;99812.13;;;12.75;100.00
163;BME280;3946;48.958;8.284;2023-04-22T06:35:00;99818.91;;;12.99;100.00
163;BME280;3946;48.958;8.284;2023-04-22T06:37:46;99819.75;;;13.20;100.00
163;BME280;3946;48.958;8.284;2023-04-22T06:40:33;99813.94;;;12.95;100.00
163;BME280;3946;48.958;8.284;2023-04-22T06:43:33;99812.97;;;13.28;100.00
163;BME280;3946;48.958;8.284;2023-04-22T06:46:21;99814.56;;;13.50;98.26
163;BME280;3946;48.958;8.284;2023-04-22T06:49:26;99818.31;;;12.95;99.71
163;BME280;3946;48.958;8.284;2023-04-22T06:52:32;99821.06;;;13.65;97.11
163;BME280;3946;48.958;8.284;2023-04-22T06:55:17;99806.81;;;13.60;94.88
163;BME280;3946;48.958;8.284;2023-04-22T06:58:04;99814.28;;;13.44;95.38
163;BME280;3946;48.958;8.284;2023-04-22T07:00:49;99819.03;;;13.69;96.58
163;BME280;3946;48.958;8.284;2023-04-22T07:03:34;99810.63;;;13.86;96.05
163;BME280;3946;48.958;8.284;2023-04-22T07:06:24;99803.09;;;14.43;95.08
163;BME280;3946;48.958;8.284;2023-04-22T07:09:10;99806.25;;;14.46;91.98
163;BME280;3946;48.958;8.284;2023-04-22T07:11:56;99815.69;;;14.28;92.18
163;BME280;3946;48.958;8.284;2023-04-22T07:14:44;99815.03;;;14.45;92.33
163;BME280;3946;48.958;8.284;2023-04-22T07:17:29;99823.13;;;14.81;92.22
163;BME280;3946;48.958;8.284;2023-04-22T07:20:14;99820.78;;;14.97;90.38
163;BME280;3946;48.958;8.284;2023-04-22T07:22:59;99818.75;;;14.91;90.78
163;BME280;3946;48.958;8.284;2023-04-22T07:25:44;99823.13;;;15.19;87.67
163;BME280;3946;48.958;8.284;2023-04-22T07:28:29;99821.03;;;15.32;89.48
163;BME280;3946;48.958;8.284;2023-04-22T07:31:15;99818.53;;;15.40;90.68
163;BME280;3946;48.958;8.284;2023-04-22T07:34:00;99817.69;;;15.50;87.99
163;BME280;3946;48.958;8.284;2023-04-22T07:36:45;99814.38;;;15.48;87.63
163;BME280;3946;48.958;8.284;2023-04-22T07:39:30;99820.63;;;15.84;88.17
163;BME280;3946;48.958;8.284;2023-04-22T07:42:15;99801.06;;;15.51;86.04
163;BME280;3946;48.958;8.284;2023-04-22T07:45:00;99787.94;;;15.97;82.79
163;BME280;3946;48.958;8.284;2023-04-22T07:47:46;99780.06;;;16.25;81.22
163;BME280;3946;48.958;8.284;2023-04-22T07:50:31;99761.94;;;16.41;78.93
163;BME280;3946;48.958;8.284;2023-04-22T07:53:16;99750.91;;;16.65;78.43
163;BME280;3946;48.958;8.284;2023-04-22T07:56:01;99740.34;;;16.74;76.21
163;BME280;3946;48.958;8.284;2023-04-22T07:58:47;99723.31;;;16.53;75.06
163;BME280;3946;48.958;8.284;2023-04-22T08:01:32;99740.72;;;17.05;76.12
163;BME280;3946;48.958;8.284;2023-04-22T08:04:21;99725.59;;;17.51;74.29
163;BME280;3946;48.958;8.284;2023-04-22T08:07:06;99730.34;;;17.56;74.30
163;BME280;3946;48.958;8.284;2023-04-22T08:09:51;99738.84;;;17.49;74.40
163;BME280;3946;48.958;8.284;2023-04-22T08:12:38;99728.75;;;17.63;73.84
163;BME280;3946;48.958;8.284;2023-04-22T08:15:23;99713.31;;;17.52;73.05
163;BME280;3946;48.958;8.284;2023-04-22T08:18:08;99656.94;;;17.90;69.56
163;BME280;3946;48.958;8.284;2023-04-22T08:20:55;99645.94;;;18.51;67.85
163;BME280;3946;48.958;8.284;2023-04-22T08:23:40;99663.84;;;18.47;67.95
163;BME280;3946;48.958;8.284;2023-04-22T08:26:25;99625.66;;;18.21;65.73
163;BME280;3946;48.958;8.284;2023-04-22T08:29:10;99645.50;;;18.31;66.42
163;BME280;3946;48.958;8.284;2023-04-22T08:31:55;99697.13;;;18.23;68.78
163;BME280;3946;48.958;8.284;2023-04-22T08:34:39;99670.38;;;18.19;67.62
163;BME280;3946;48.958;8.284;2023-04-22T08:37:26;99718.44;;;18.52;69.74
163;BME280;3946;48.958;8.284;2023-04-22T08:40:12;99648.28;;;18.62;66.76
163;BME280;3946;48.958;8.284;2023-04-22T08:42:57;99658.22;;;18.91;66.53
163;BME280;3946;48.958;8.284;2023-04-22T08:45:42;99583.19;;;19.05;62.82
163;BME280;3946;48.958;8.284;2023-04-22T08:48:28;99645.78;;;18.77;65.42
163;BME280;3946;48.958;8.284;2023-04-22T08:51:13;99640.47;;;19.01;65.00
163;BME280;3946;48.958;8.284;2023-04-22T08:54:00;99689.09;;;18.48;67.55
163;BME280;3946;48.958;8.284;2023-04-22T08:56:45;99589.13;;;18.99;62.89
163;BME280;3946;48.958;8.284;2023-04-22T08:59:30;99638.72;;;18.85;65.04
163;BME280;3946;48.958;8.284;2023-04-22T09:02:15;99640.00;;;18.98;65.27
163;BME280;3946;48.958;8.284;2023-04-22T09:05:02;99651.47;;;19.05;65.92
163;BME280;3946;48.958;8.284;2023-04-22T09:07:48;99623.22;;;19.07;65.03
163;BME280;3946;48.958;8.284;2023-04-22T09:10:36;99595.75;;;19.56;63.55
163;BME280;3946;48.958;8.284;2023-04-22T09:13:22;99580.09;;;19.86;62.68
163;BME280;3946;48.958;8.284;2023-04-22T09:16:08;99589.09;;;19.38;62.96
163;BME280;3946;48.958;8.284;2023-04-22T09:18:53;99575.44;;;19.42;63.07
163;BME280;3946;48.958;8.284;2023-04-22T09:21:38;99579.91;;;19.65;62.70
163;BME280;3946;48.958;8.284;2023-04-22T09:24:23;99592.44;;;19.63;63.55
163;BME280;3946;48.958;8.284;2023-04-22T09:27:09;99575.66;;;19.86;62.83
163;BME280;3946;48.958;8.284;2023-04-22T09:29:55;99563.47;;;20.08;62.04
163;BME280;3946;48.958;8.284;2023-04-22T09:32:40;99577.81;;;20.06;62.48
163;BME280;3946;48.958;8.284;2023-04-22T09:35:25;99618.78;;;19.77;64.41
163;BME280;3946;48.958;8.284;2023-04-22T09:38:11;99607.19;;;19.86;63.94
163;BME280;3946;48.958;8.284;2023-04-22T09:40:56;99547.50;;;19.72;61.47
163;BME280;3946;48.958;8.284;2023-04-22T09:43:42;99591.81;;;19.52;62.90
163;BME280;3946;48.958;8.284;2023-04-22T09:46:27;99573.72;;;20.03;62.35
163;BME280;3946;48.958;8.284;2023-04-22T09:49:14;99561.88;;;20.22;61.51
163;BME280;3946;48.958;8.284;2023-04-22T09:52:00;99601.59;;;20.12;63.39
163;BME280;3946;48.958;8.284;2023-04-22T09:54:47;99593.88;;;20.11;62.89
163;BME280;3946;48.958;8.284;2023-04-22T09:57:33;99578.06;;;20.48;61.95
163;BME280;3946;48.958;8.284;2023-04-22T10:00:26;99567.38;;;20.79;61.72
163;BME280;3946;48.958;8.284;2023-04-22T10:03:12;99536.72;;;21.22;59.80
163;BME280;3946;48.958;8.284;2023-04-22T10:05:57;99521.94;;;21.43;59.10
163;BME280;3946;48.958;8.284;2023-04-22T10:08:43;99530.66;;;21.64;58.96
163;BME280;3946;48.958;8.284;2023-04-22T10:11:28;99546.63;;;21.56;59.79
163;BME280;3946;48.958;8.284;2023-04-22T10:14:14;99511.22;;;21.93;58.23
163;BME280;3946;48.958;8.284;2023-04-22T10:17:00;99529.69;;;21.93;58.65
163;BME280;3946;48.958;8.284;2023-04-22T10:19:46;99514.09;;;21.98;57.76
163;BME280;3946;48.958;8.284;2023-04-22T10:22:33;99462.69;;;22.16;56.34
163;BME280;3946;48.958;8.284;2023-04-22T10:25:19;99459.50;;;22.68;55.76
163;BME280;3946;48.958;8.284;2023-04-22T10:28:05;99469.88;;;22.28;56.02
163;BME280;3946;48.958;8.284;2023-04-22T10:30:52;99404.25;;;22.25;53.42
163;BME280;3946;48.958;8.284;2023-04-22T10:33:41;99455.50;;;22.38;55.34
163;BME280;3946;48.958;8.284;2023-04-22T10:36:26;99483.16;;;22.07;55.93
163;BME280;3946;48.958;8.284;2023-04-22T10:39:14;99417.25;;;22.68;53.04
163;BME280;3946;48.958;8.284;2023-04-22T10:42:06;99399.94;;;22.59;52.33
163;BME280;3946;48.958;8.284;2023-04-22T10:44:53;99409.50;;;22.66;52.22
163;BME280;3946;48.958;8.284;2023-04-22T10:47:38;99415.13;;;23.05;52.79
163;BME280;3946;48.958;8.284;2023-04-22T10:50:26;99407.00;;;23.39;52.49
163;BME280;3946;48.958;8.284;2023-04-22T10:53:34;99385.47;;;23.55;51.46
163;BME280;3946;48.958;8.284;2023-04-22T10:56:19;99274.16;;;23.63;47.25
163;BME280;3946;48.958;8.284;2023-04-22T10:59:13;99297.56;;;22.67;48.06
163;BME280;3946;48.958;8.284;2023-04-22T11:01:59;99322.72;;;22.57;49.28
163;BME280;3946;48.958;8.284;2023-04-22T11:04:45;99288.66;;;22.68;47.87
163;BME280;3946;48.958;8.284;2023-04-22T11:07:31;99324.34;;;22.38;49.21
163;BME280;3946;48.958;8.284;2023-04-22T11:10:32;99324.53;;;22.43;48.72
163;BME280;3946;48.958;8.284;2023-04-22T11:13:18;99361.34;;;22.64;49.71
163;BME280;3946;48.958;8.284;2023-04-22T11:16:04;99340.06;;;22.12;49.49
163;BME280;3946;48.958;8.284;2023-04-22T11:18:51;99343.56;;;22.25;49.13
163;BME280;3946;48.958;8.284;2023-04-22T11:21:36;99293.09;;;22.55;47.56
163;BME280;3946;48.958;8.284;2023-04-22T11:24:23;99378.78;;;22.46;50.50
163;BME280;3946;48.958;8.284;2023-04-22T11:29:59;99319.19;;;23.04;48.01
163;BME280;3946;48.958;8.284;2023-04-22T11:32:45;99299.47;;;23.00;46.99
163;BME280;3946;48.958;8.284;2023-04-22T11:35:31;99409.78;;;22.30;51.04
163;BME280;3946;48.958;8.284;2023-04-22T11:38:17;99434.41;;;22.38;51.30
163;BME280;3946;48.958;8.284;2023-04-22T11:41:03;99389.91;;;22.41;50.14
163;BME280;3946;48.958;8.284;2023-04-22T11:43:48;99370.53;;;22.14;49.92
163;BME280;3946;48.958;8.284;2023-04-22T11:46:33;99390.88;;;22.27;50.31
163;BME280;3946;48.958;8.284;2023-04-22T11:52:09;99337.28;;;23.20;47.53
163;BME280;3946;48.958;8.284;2023-04-22T11:54:54;99339.91;;;23.53;47.40
163;BME280;3946;48.958;8.284;2023-04-22T11:57:45;99255.31;;;23.33;44.75
163;BME280;3946;48.958;8.284;2023-04-22T12:00:35;99248.00;;;23.09;44.79
163;BME280;3946;48.958;8.284;2023-04-22T12:03:21;99264.28;;;23.13;45.39
163;BME280;3946;48.958;8.284;2023-04-22T12:06:07;99219.09;;;23.27;43.96
163;BME280;3946;48.958;8.284;2023-04-22T12:08:52;99303.06;;;23.65;45.76
163;BME280;3946;48.958;8.284;2023-04-22T12:11:43;99245.00;;;23.77;43.80
163;BME280;3946;48.958;8.284;2023-04-22T12:14:31;99225.63;;;23.25;43.77
163;BME280;3946;48.958;8.284;2023-04-22T12:17:21;99210.84;;;22.84;42.85
163;BME280;3946;48.958;8.284;2023-04-22T12:20:07;99245.38;;;23.02;43.95
163;BME280;3946;48.958;8.284;2023-04-22T12:22:55;99244.97;;;22.53;43.89
163;BME280;3946;48.958;8.284;2023-04-22T12:25:41;99271.31;;;22.33;44.96
163;BME280;3946;48.958;8.284;2023-04-22T12:28:26;99279.63;;;22.23;45.36
163;BME280;3946;48.958;8.284;2023-04-22T12:31:13;99314.41;;;22.47;46.01
163;BME280;3946;48.958;8.284;2023-04-22T12:33:58;99296.81;;;22.87;45.32
163;BME280;3946;48.958;8.284;2023-04-22T12:36:44;99252.69;;;23.14;43.88
163;BME280;3946;48.958;8.284;2023-04-22T12:39:31;99252.41;;;24.06;43.02
163;BME280;3946;48.958;8.284;2023-04-22T12:42:16;99206.16;;;24.15;41.88
163;BME280;3946;48.958;8.284;2023-04-22T12:45:01;99230.28;;;23.94;42.31
163;BME280;3946;48.958;8.284;2023-04-22T12:47:48;99280.06;;;23.39;44.59
163;BME280;3946;48.958;8.284;2023-04-22T12:50:32;99235.38;;;23.31;43.11
163;BME280;3946;48.958;8.284;2023-04-22T12:53:19;99279.34;;;23.90;44.35
163;BME280;3946;48.958;8.284;2023-04-22T12:56:04;99204.78;;;23.68;41.80
163;BME280;3946;48.958;8.284;2023-04-22T12:58:49;99246.50;;;24.04;42.70
163;BME280;3946;48.958;8.284;2023-04-22T13:01:34;99225.25;;;23.86;42.14
163;BME280;3946;48.958;8.284;2023-04-22T13:04:20;99181.69;;;23.30;40.76
163;BME280;3946;48.958;8.284;2023-04-22T13:07:05;99213.47;;;22.38;41.96
163;BME280;3946;48.958;8.284;2023-04-22T13:09:50;99234.16;;;22.21;42.92
163;BME280;3946;48.958;8.284;2023-04-22T13:12:35;99218.25;;;22.08;42.42
163;BME280;3946;48.958;8.284;2023-04-22T13:15:20;99231.28;;;22.16;43.11
163;BME280;3946;48.958;8.284;2023-04-22T13:18:05;99222.47;;;21.96;42.99
163;BME280;3946;48.958;8.284;2023-04-22T13:20:53;99217.25;;;22.03;42.56
163;BME280;3946;48.958;8.284;2023-04-22T13:23:39;99217.09;;;22.17;42.63
163;BME280;3946;48.958;8.284;2023-04-22T13:26:24;99258.97;;;22.40;43.67
163;BME280;3946;48.958;8.284;2023-04-22T13:29:10;99213.03;;;22.74;42.40
163;BME280;3946;48.958;8.284;2023-04-22T13:31:57;99199.84;;;22.94;41.83
163;BME280;3946;48.958;8.284;2023-04-22T13:34:44;99180.13;;;23.10;41.49
163;BME280;3946;48.958;8.284;2023-04-22T13:37:30;99125.72;;;22.69;40.33
163;BME280;3946;48.958;8.284;2023-04-22T13:40:16;99141.16;;;22.72;40.57
163;BME280;3946;48.958;8.284;2023-04-22T13:43:01;99133.22;;;22.59;40.20
163;BME280;3946;48.958;8.284;2023-04-22T13:45:47;99121.06;;;22.45;40.39
163;BME280;3946;48.958;8.284;2023-04-22T13:48:32;99132.38;;;22.98;40.84
163;BME280;3946;48.958;8.284;2023-04-22T13:51:18;99146.81;;;22.76;40.71
163;BME280;3946;48.958;8.284;2023-04-22T13:54:05;99141.16;;;22.59;41.32
163;BME280;3946;48.958;8.284;2023-04-22T13:56:50;99157.81;;;22.79;41.81
163;BME280;3946;48.958;8.284;2023-04-22T13:59:35;99121.66;;;22.47;40.76
163;BME280;3946;48.958;8.284;2023-04-22T14:02:21;99195.97;;;22.30;42.90
163;BME280;3946;48.958;8.284;2023-04-22T14:05:06;99194.38;;;22.36;43.05
163;BME280;3946;48.958;8.284;2023-04-22T14:07:53;99200.25;;;22.58;42.63
163;BME280;3946;48.958;8.284;2023-04-22T14:10:39;99152.97;;;22.37;41.66
163;BME280;3946;48.958;8.284;2023-04-22T14:13:25;99182.56;;;22.25;42.47
163;BME280;3946;48.958;8.284;2023-04-22T14:16:10;99167.13;;;22.16;42.10
163;BME280;3946;48.958;8.284;2023-04-22T14:18:55;99208.56;;;22.28;43.27
163;BME280;3946;48.958;8.284;2023-04-22T14:21:41;99175.69;;;22.38;42.12
163;BME280;3946;48.958;8.284;2023-04-22T14:24:27;99180.16;;;22.90;42.10
163;BME280;3946;48.958;8.284;2023-04-22T14:27:13;99191.53;;;22.71;42.62
163;BME280;3946;48.958;8.284;2023-04-22T14:30:00;99191.13;;;22.54;42.70
163;BME280;3946;48.958;8.284;2023-04-22T14:32:47;99155.78;;;22.28;41.78
163;BME280;3946;48.958;8.284;2023-04-22T14:35:32;99189.19;;;21.88;42.45
163;BME280;3946;48.958;8.284;2023-04-22T14:38:19;99179.34;;;21.56;42.52
163;BME280;3946;48.958;8.284;2023-04-22T14:41:05;99198.66;;;21.70;42.95
163;BME280;3946;48.958;8.284;2023-04-22T14:43:52;99155.91;;;21.94;41.64
163;BME280;3946;48.958;8.284;2023-04-22T14:46:37;99246.38;;;21.81;44.63
163;BME280;3946;48.958;8.284;2023-04-22T14:49:22;99289.19;;;21.49;46.19
163;BME280;3946;48.958;8.284;2023-04-22T14:52:08;99230.81;;;21.52;43.92
163;BME280;3946;48.958;8.284;2023-04-22T14:54:53;99191.09;;;21.60;42.79
163;BME280;3946;48.958;8.284;2023-04-22T14:57:39;99229.91;;;21.73;43.89
163;BME280;3946;48.958;8.284;2023-04-22T15:00:25;99212.22;;;21.67;43.70
163;BME280;3946;48.958;8.284;2023-04-22T15:03:10;99234.09;;;21.60;44.13
163;BME280;3946;48.958;8.284;2023-04-22T15:05:56;99229.75;;;21.40;43.98
163;BME280;3946;48.958;8.284;2023-04-22T15:08:42;99248.31;;;21.25;44.70
163;BME280;3946;48.958;8.284;2023-04-22T15:11:27;99253.34;;;21.20;45.10
163;BME280;3946;48.958;8.284;2023-04-22T15:14:12;99285.03;;;21.05;46.12
163;BME280;3946;48.958;8.284;2023-04-22T15:16:59;99339.91;;;20.80;47.75
163;BME280;3946;48.958;8.284;2023-04-22T15:19:44;99354.28;;;20.78;48.34
163;BME280;3946;48.958;8.284;2023-04-22T15:22:29;99393.72;;;20.71;49.77
163;BME280;3946;48.958;8.284;2023-04-22T15:25:15;99330.84;;;21.11;47.62